松山國際航空站 - ATIS

METAR RCSS 191800Z VRB01KT 9999 FEW016 SCT150 23/21 Q1008 NOSIG RMK A2979=

站台狀態:Online
最後更新:2024-04-20 02:30:01